createdAt,value
2022-12-17T00:02:00.381Z,98179.53
2022-12-17T00:04:26.579Z,98174.19
2022-12-17T00:06:52.801Z,98172.56
2022-12-17T00:09:22.960Z,98170.72
2022-12-17T00:11:49.154Z,98179.53
2022-12-17T00:14:15.422Z,98170.13
2022-12-17T00:16:41.710Z,98180.56
2022-12-17T00:19:08.032Z,98191.22
2022-12-17T00:21:34.299Z,98183.47
2022-12-17T00:24:00.547Z,98190.66
2022-12-17T00:26:26.988Z,98193.06
2022-12-17T00:28:53.301Z,98202.13
2022-12-17T00:34:03.647Z,98189.03
2022-12-17T00:36:29.943Z,98201.31
2022-12-17T00:38:56.156Z,98200.53
2022-12-17T00:41:22.937Z,98210.38
2022-12-17T00:43:49.143Z,98216.75
2022-12-17T00:46:15.355Z,98215.13
2022-12-17T00:48:41.568Z,98211.63
2022-12-17T00:51:07.945Z,98214.53
2022-12-17T00:53:34.503Z,98211.09
2022-12-17T00:56:00.933Z,98207.59
2022-12-17T00:58:27.221Z,98218.28
2022-12-17T01:00:53.531Z,98217.22
2022-12-17T01:03:22.591Z,98219.88
2022-12-17T01:05:48.792Z,98218.03
2022-12-17T01:08:15.001Z,98217.78
2022-12-17T01:10:41.198Z,98224.75
2022-12-17T01:13:07.422Z,98216.75
2022-12-17T01:15:33.645Z,98226.38
2022-12-17T01:17:59.974Z,98233.31
2022-12-17T01:20:26.185Z,98231.72
2022-12-17T01:22:52.512Z,98233.31
2022-12-17T01:25:22.598Z,98240.28
2022-12-17T01:27:49.075Z,98241.31
2022-12-17T01:30:15.366Z,98246.91
2022-12-17T01:32:41.640Z,98241.91
2022-12-17T01:35:07.945Z,98251.75
2022-12-17T01:37:34.176Z,98250.50
2022-12-17T01:40:00.353Z,98256.66
2022-12-17T01:42:26.640Z,98255.59
2022-12-17T01:44:52.926Z,98261.50
2022-12-17T01:47:19.121Z,98267.91
2022-12-17T01:49:45.302Z,98268.94
2022-12-17T01:52:11.573Z,98261.75
2022-12-17T01:54:37.751Z,98261.16
2022-12-17T01:57:03.950Z,98265.69
2022-12-17T01:59:30.269Z,98265.69
2022-12-17T02:01:56.711Z,98264.06
2022-12-17T02:04:23.049Z,98272.31
2022-12-17T02:06:49.221Z,98271.72
2022-12-17T02:09:15.425Z,98277.66
2022-12-17T02:11:41.714Z,98272.75
2022-12-17T02:14:07.914Z,98276.47
2022-12-17T02:16:34.135Z,98277.78
2022-12-17T02:19:00.477Z,98275.31
2022-12-17T02:21:26.673Z,98276.94
2022-12-17T02:23:52.861Z,98279.84
2022-12-17T02:26:19.047Z,98272.09
2022-12-17T02:28:45.340Z,98277.63
2022-12-17T02:31:11.885Z,98281.34
2022-12-17T02:33:38.455Z,98275.78
2022-12-17T02:36:04.731Z,98277.63
2022-12-17T02:38:30.977Z,98281.13
2022-12-17T02:40:57.195Z,98272.53
2022-12-17T02:43:23.357Z,98269.06
2022-12-17T02:45:49.634Z,98279.94
2022-12-17T02:48:15.948Z,98281.81
2022-12-17T02:50:42.396Z,98282.84
2022-12-17T02:53:08.598Z,98281.25
2022-12-17T02:55:34.765Z,98283.66
2022-12-17T02:58:01.289Z,98293.28
2022-12-17T03:00:27.471Z,98292.50
2022-12-17T03:02:53.813Z,98293.28
2022-12-17T03:05:43.904Z,98295.94
2022-12-17T03:08:06.289Z,98298.19
2022-12-17T03:10:32.463Z,98295.50
2022-12-17T03:12:58.681Z,98305.13
2022-12-17T03:15:25.004Z,98302.44
2022-12-17T03:17:51.162Z,98306.53
2022-12-17T03:20:17.349Z,98308.59
2022-12-17T03:22:43.619Z,98313.13
2022-12-17T03:25:09.827Z,98317.44
2022-12-17T03:27:36.074Z,98316.38
2022-12-17T03:30:02.631Z,98319.28
2022-12-17T03:32:28.869Z,98320.31
2022-12-17T03:34:55.045Z,98327.50
2022-12-17T03:37:21.283Z,98326.22
2022-12-17T03:39:47.472Z,98323.56
2022-12-17T03:42:13.663Z,98327.03
2022-12-17T03:44:39.853Z,98330.75
2022-12-17T03:47:06.136Z,98329.13
2022-12-17T03:49:32.307Z,98328.31
2022-12-17T03:51:58.509Z,98331.78
2022-12-17T03:54:24.956Z,98330.75
2022-12-17T03:56:51.143Z,98332.38
2022-12-17T03:59:17.522Z,98331.91
2022-12-17T04:01:43.871Z,98337.47
2022-12-17T04:04:10.189Z,98327.84
2022-12-17T04:06:36.423Z,98328.31
2022-12-17T04:09:02.655Z,98336.19
2022-12-17T04:11:28.839Z,98338.38
2022-12-17T04:13:55.082Z,98340.56
2022-12-17T04:16:21.278Z,98344.38
2022-12-17T04:18:47.444Z,98343.22
2022-12-17T04:21:13.662Z,98341.59
2022-12-17T04:23:39.855Z,98349.00
2022-12-17T04:26:06.076Z,98346.91
2022-12-17T04:28:32.245Z,98349.16
2022-12-17T04:30:58.575Z,98351.34
2022-12-17T04:33:24.777Z,98348.44
2022-12-17T04:35:51.018Z,98355.75
2022-12-17T04:38:17.447Z,98352.84
2022-12-17T04:40:43.623Z,98353.78
2022-12-17T04:43:09.949Z,98352.31
2022-12-17T04:45:36.128Z,98350.22
2022-12-17T04:48:02.307Z,98354.06
2022-12-17T04:50:28.524Z,98357.53
2022-12-17T04:52:54.738Z,98356.50
2022-12-17T04:55:20.937Z,98365.28
2022-12-17T04:57:47.130Z,98354.63
2022-12-17T05:00:13.324Z,98357.28
2022-12-17T05:02:42.693Z,98360.41
2022-12-17T05:05:09.249Z,98368.19
2022-12-17T05:07:35.490Z,98373.28
2022-12-17T05:10:01.698Z,98371.44
2022-12-17T05:12:27.939Z,98373.53
2022-12-17T05:14:54.211Z,98381.75
2022-12-17T05:17:20.424Z,98377.47
2022-12-17T05:19:46.720Z,98384.66
2022-12-17T05:22:12.998Z,98375.41
2022-12-17T05:24:39.210Z,98379.69
2022-12-17T05:27:05.434Z,98384.19
2022-12-17T05:29:31.612Z,98388.72
2022-12-17T05:31:57.801Z,98395.09
2022-12-17T05:34:24.093Z,98396.16
2022-12-17T05:36:50.285Z,98401.72
2022-12-17T05:39:16.487Z,98410.16
2022-12-17T05:41:42.897Z,98410.38
2022-12-17T05:44:09.129Z,98402.59
2022-12-17T05:46:35.345Z,98401.78
2022-12-17T05:49:01.887Z,98402.84
2022-12-17T05:51:28.067Z,98410.03
2022-12-17T05:53:54.305Z,98418.25
2022-12-17T05:56:20.492Z,98417.44
2022-12-17T05:58:46.690Z,98415.00
2022-12-17T06:01:14.040Z,98416.63
2022-12-17T06:03:40.916Z,98416.84
2022-12-17T06:06:07.506Z,98410.34
2022-12-17T06:08:33.832Z,98414.28
2022-12-17T06:11:00.031Z,98426.00
2022-12-17T06:13:26.300Z,98426.81
2022-12-17T06:15:52.608Z,98430.50
2022-12-17T06:18:18.891Z,98436.06
2022-12-17T06:20:45.097Z,98435.47
2022-12-17T06:23:11.298Z,98444.75
2022-12-17T06:25:37.475Z,98445.78
2022-12-17T06:28:03.680Z,98447.06
2022-12-17T06:30:29.866Z,98450.16
2022-12-17T06:32:56.091Z,98444.22
2022-12-17T06:35:22.282Z,98457.34
2022-12-17T06:37:48.517Z,98455.94
2022-12-17T06:40:14.708Z,98453.50
2022-12-17T06:42:41.101Z,98455.34
2022-12-17T06:45:07.304Z,98456.41
2022-12-17T06:47:33.516Z,98459.28
2022-12-17T06:50:01.676Z,98463.56
2022-12-17T06:52:28.089Z,98466.00
2022-12-17T06:54:54.301Z,98460.69
2022-12-17T06:57:20.500Z,98480.16
2022-12-17T06:59:46.771Z,98474.59
2022-12-17T07:02:13.182Z,98481.78
2022-12-17T07:04:39.460Z,98489.75
2022-12-17T07:07:05.629Z,98490.59
2022-12-17T07:09:31.873Z,98489.53
2022-12-17T07:11:58.135Z,98491.19
2022-12-17T07:14:24.398Z,98498.59
2022-12-17T07:16:50.657Z,98498.81
2022-12-17T07:19:16.917Z,98498.00
2022-12-17T07:21:43.551Z,98504.38
2022-12-17T07:24:09.722Z,98503.78
2022-12-17T07:26:36.005Z,98515.47
2022-12-17T07:29:02.301Z,98523.44
2022-12-17T07:31:28.640Z,98521.00
2022-12-17T07:33:54.887Z,98524.50
2022-12-17T07:36:23.470Z,98526.13
2022-12-17T07:38:49.762Z,98531.66
2022-12-17T07:41:15.936Z,98531.25
2022-12-17T07:43:42.171Z,98535.75
2022-12-17T07:46:08.420Z,98534.47
2022-12-17T07:48:34.613Z,98540.63
2022-12-17T07:51:00.914Z,98543.75
2022-12-17T07:53:27.195Z,98552.19
2022-12-17T07:55:53.473Z,98554.72
2022-12-17T07:58:19.655Z,98556.59
2022-12-17T08:00:49.317Z,98559.91
2022-12-17T08:03:15.835Z,98559.91
2022-12-17T08:05:42.068Z,98560.75
2022-12-17T08:08:08.240Z,98574.06
2022-12-17T08:10:34.569Z,98571.41
2022-12-17T08:13:00.918Z,98577.56
2022-12-17T08:15:27.116Z,98578.94
2022-12-17T08:17:53.350Z,98582.22
2022-12-17T08:20:19.812Z,98585.50
2022-12-17T08:22:46.045Z,98597.78
2022-12-17T08:25:12.225Z,98586.69
2022-12-17T08:27:38.472Z,98593.19
2022-12-17T08:30:04.846Z,98596.47
2022-12-17T08:32:31.042Z,98599.94
2022-12-17T08:34:57.254Z,98596.47
2022-12-17T08:37:23.478Z,98602.16
2022-12-17T08:39:49.695Z,98602.75
2022-12-17T08:42:15.987Z,98609.47
2022-12-17T08:44:42.210Z,98609.47
2022-12-17T08:47:08.418Z,98603.94
2022-12-17T08:49:34.639Z,98605.78
2022-12-17T08:52:03.690Z,98614.81
2022-12-17T08:54:29.922Z,98616.00
2022-12-17T08:56:56.275Z,98603.28
2022-12-17T08:59:23.421Z,98612.47
2022-12-17T09:01:49.696Z,98621.44
2022-12-17T09:04:16.037Z,98619.47
2022-12-17T09:06:42.227Z,98609.78
2022-12-17T09:09:08.436Z,98615.25
2022-12-17T09:11:34.633Z,98620.28
2022-12-17T09:14:00.871Z,98613.03
2022-12-17T09:16:27.145Z,98621.16
2022-12-17T09:18:53.466Z,98616.19
2022-12-17T09:21:19.691Z,98625.38
2022-12-17T09:23:45.929Z,98620.97
2022-12-17T09:26:12.214Z,98620.47
2022-12-17T09:28:38.673Z,98623.28
2022-12-17T09:31:05.044Z,98619.72
2022-12-17T09:33:31.255Z,98627.63
2022-12-17T09:35:57.494Z,98633.69
2022-12-17T09:38:23.817Z,98631.16
2022-12-17T09:40:50.030Z,98630.81
2022-12-17T09:43:16.312Z,98625.16
2022-12-17T09:45:42.725Z,98632.00
2022-12-17T09:48:08.983Z,98632.34
2022-12-17T09:50:35.186Z,98634.59
2022-12-17T09:53:01.406Z,98635.31
2022-12-17T09:55:27.631Z,98635.44
2022-12-17T09:57:54.013Z,98636.56
2022-12-17T10:00:20.217Z,98635.66
2022-12-17T10:02:46.574Z,98626.16
2022-12-17T10:05:12.924Z,98635.91
2022-12-17T10:07:39.185Z,98645.69
2022-12-17T10:10:05.347Z,98650.81
2022-12-17T10:12:31.587Z,98647.78
2022-12-17T10:14:57.864Z,98651.97
2022-12-17T10:17:24.181Z,98657.16
2022-12-17T10:19:50.593Z,98652.50
2022-12-17T10:22:16.816Z,98650.50
2022-12-17T10:24:42.989Z,98664.47
2022-12-17T10:27:09.187Z,98663.19
2022-12-17T10:29:35.497Z,98664.81
2022-12-17T10:32:01.728Z,98662.38
2022-12-17T10:34:27.932Z,98665.75
2022-12-17T10:36:54.215Z,98653.66
2022-12-17T10:39:20.431Z,98652.47
2022-12-17T10:41:46.734Z,98652.94
2022-12-17T10:44:12.963Z,98652.59
2022-12-17T10:46:39.212Z,98657.34
2022-12-17T10:49:11.048Z,98665.59
2022-12-17T10:51:37.680Z,98666.88
2022-12-17T10:54:03.826Z,98662.78
2022-12-17T10:56:30.063Z,98670.22
2022-12-17T10:58:56.261Z,98671.50
2022-12-17T11:01:22.622Z,98673.59
2022-12-17T11:03:49.020Z,98670.31
2022-12-17T11:06:15.441Z,98672.41
2022-12-17T11:08:41.675Z,98672.63
2022-12-17T11:11:08.918Z,98672.88
2022-12-17T11:13:35.527Z,98673.09
2022-12-17T11:16:03.315Z,98674.34
2022-12-17T11:18:29.521Z,98679.94
2022-12-17T11:20:55.742Z,98682.59
2022-12-17T11:23:21.919Z,98682.81
2022-12-17T11:25:48.091Z,98677.72
2022-12-17T11:28:14.305Z,98683.28
2022-12-17T11:30:40.555Z,98680.81
2022-12-17T11:33:06.812Z,98686.41
2022-12-17T11:35:32.986Z,98677.59
2022-12-17T11:37:59.167Z,98669.78
2022-12-17T11:40:25.374Z,98654.19
2022-12-17T11:42:51.560Z,98673.13
2022-12-17T11:45:17.770Z,98676.03
2022-12-17T11:47:44.007Z,98677.88
2022-12-17T11:50:10.191Z,98675.22
2022-12-17T11:52:36.414Z,98667.91
2022-12-17T11:55:02.642Z,98673.00
2022-12-17T11:57:28.884Z,98666.03
2022-12-17T11:59:59.447Z,98674.25
2022-12-17T12:02:28.584Z,98676.34
2022-12-17T12:04:54.884Z,98671.22
2022-12-17T12:07:21.092Z,98667.97
2022-12-17T12:09:47.478Z,98675.41
2022-12-17T12:12:13.712Z,98686.09
2022-12-17T12:14:39.927Z,98682.81
2022-12-17T12:17:06.176Z,98675.84
2022-12-17T12:19:32.366Z,98677.50
2022-12-17T12:21:58.547Z,98676.66
2022-12-17T12:24:24.754Z,98681.47
2022-12-17T12:26:51.133Z,98680.38
2022-12-17T12:29:17.365Z,98681.78
2022-12-17T12:31:44.669Z,98684.81
2022-12-17T12:34:11.003Z,98690.22
2022-12-17T12:36:37.266Z,98683.56
2022-12-17T12:39:03.450Z,98682.38
2022-12-17T12:44:13.495Z,98686.75
2022-12-17T12:46:39.947Z,98685.34
2022-12-17T12:49:06.187Z,98689.00
2022-12-17T12:51:34.367Z,98684.72
2022-12-17T12:54:00.734Z,98689.69
2022-12-17T12:56:26.934Z,98688.88
2022-12-17T12:58:53.220Z,98698.31
2022-12-17T13:01:19.555Z,98696.44
2022-12-17T13:03:45.914Z,98694.88
2022-12-17T13:06:12.120Z,98707.06
2022-12-17T13:08:38.713Z,98712.22
2022-12-17T13:11:05.194Z,98710.13
2022-12-17T13:13:31.444Z,98704.59
2022-12-17T13:15:57.668Z,98716.22
2022-12-17T13:18:24.022Z,98715.59
2022-12-17T13:20:50.201Z,98709.00
2022-12-17T13:23:16.369Z,98700.34
2022-12-17T13:25:42.658Z,98689.22
2022-12-17T13:28:08.862Z,98686.53
2022-12-17T13:30:35.052Z,98698.91
2022-12-17T13:33:01.241Z,98689.81
2022-12-17T13:35:27.500Z,98691.22
2022-12-17T13:37:53.799Z,98686.75
2022-12-17T13:40:19.982Z,98687.28
2022-12-17T13:42:46.270Z,98679.59
2022-12-17T13:45:12.482Z,98687.72
2022-12-17T13:47:38.680Z,98695.09
2022-12-17T13:50:32.609Z,98698.41
2022-12-17T13:52:51.343Z,98699.59
2022-12-17T13:55:17.556Z,98689.47
2022-12-17T13:57:43.850Z,98701.00
2022-12-17T14:00:10.053Z,98699.84
2022-12-17T14:02:36.447Z,98699.53
2022-12-17T14:05:07.440Z,98703.47
2022-12-17T14:07:34.182Z,98704.97
2022-12-17T14:10:00.431Z,98716.91
2022-12-17T14:12:26.632Z,98719.19
2022-12-17T14:14:52.837Z,98716.47
2022-12-17T14:17:20.157Z,98716.69
2022-12-17T14:19:46.437Z,98710.50
2022-12-17T14:22:12.612Z,98719.25
2022-12-17T14:24:38.826Z,98715.50
2022-12-17T14:27:04.993Z,98725.91
2022-12-17T14:29:31.320Z,98724.56
2022-12-17T14:31:57.560Z,98731.78
2022-12-17T14:34:23.948Z,98732.91
2022-12-17T14:36:50.254Z,98730.78
2022-12-17T14:39:16.469Z,98728.38
2022-12-17T14:41:42.662Z,98730.09
2022-12-17T14:44:08.892Z,98736.31
2022-12-17T14:46:35.058Z,98735.56
2022-12-17T14:49:01.504Z,98728.44
2022-12-17T14:51:27.684Z,98733.59
2022-12-17T14:53:53.853Z,98732.66
2022-12-17T14:56:20.039Z,98730.84
2022-12-17T14:58:46.291Z,98739.69
2022-12-17T15:01:12.575Z,98747.53
2022-12-17T15:03:38.841Z,98748.81
2022-12-17T15:06:05.064Z,98749.81
2022-12-17T15:08:31.300Z,98754.28
2022-12-17T15:10:57.498Z,98745.59
2022-12-17T15:13:23.681Z,98743.25
2022-12-17T15:15:51.788Z,98742.50
2022-12-17T15:18:17.967Z,98739.13
2022-12-17T15:20:44.149Z,98737.56
2022-12-17T15:23:10.334Z,98736.03
2022-12-17T15:25:41.629Z,98739.56
2022-12-17T15:28:10.727Z,98747.09
2022-12-17T15:30:37.153Z,98750.72
2022-12-17T15:33:03.435Z,98751.44
2022-12-17T15:35:29.637Z,98757.53
2022-12-17T15:37:55.869Z,98759.75
2022-12-17T15:40:22.164Z,98764.66
2022-12-17T15:42:48.342Z,98757.09
2022-12-17T15:45:14.522Z,98754.06
2022-12-17T15:47:40.755Z,98753.69
2022-12-17T15:50:06.969Z,98752.97
2022-12-17T15:52:33.272Z,98753.25
2022-12-17T15:54:59.471Z,98755.38
2022-12-17T15:57:25.726Z,98757.16
2022-12-17T15:59:51.890Z,98750.09
2022-12-17T16:02:18.242Z,98758.84
2022-12-17T16:04:44.518Z,98763.84
2022-12-17T16:07:10.763Z,98770.28
2022-12-17T16:09:37.058Z,98773.59
2022-12-17T16:12:03.340Z,98778.78
2022-12-17T16:14:29.550Z,98769.00
2022-12-17T16:16:55.800Z,98773.56
2022-12-17T16:19:21.984Z,98771.97
2022-12-17T16:21:48.229Z,98783.09
2022-12-17T16:24:14.552Z,98781.72
2022-12-17T16:26:40.787Z,98778.28
2022-12-17T16:29:07.073Z,98784.06
2022-12-17T16:31:33.387Z,98781.97
2022-12-17T16:33:59.635Z,98786.88
2022-12-17T16:36:25.879Z,98777.84
2022-12-17T16:38:52.314Z,98792.75
2022-12-17T16:41:18.508Z,98791.66
2022-12-17T16:43:44.890Z,98784.84
2022-12-17T16:46:12.423Z,98787.03
2022-12-17T16:48:39.366Z,98795.59
2022-12-17T16:51:07.931Z,98797.41
2022-12-17T16:53:34.263Z,98798.13
2022-12-17T16:56:00.488Z,98803.19
2022-12-17T16:58:26.757Z,98801.28
2022-12-17T17:00:53.038Z,98812.94
2022-12-17T17:03:19.491Z,98822.72
2022-12-17T17:05:45.829Z,98815.09
2022-12-17T17:08:12.166Z,98818.50
2022-12-17T17:10:38.379Z,98816.81
2022-12-17T17:13:04.578Z,98818.81
2022-12-17T17:15:30.765Z,98822.44
2022-12-17T17:18:01.406Z,98819.97
2022-12-17T17:20:28.294Z,98822.78
2022-12-17T17:22:54.803Z,98822.34
2022-12-17T17:25:21.035Z,98829.69
2022-12-17T17:27:47.279Z,98823.16
2022-12-17T17:30:13.548Z,98828.13
2022-12-17T17:32:39.902Z,98830.88
2022-12-17T17:35:06.227Z,98834.63
2022-12-17T17:37:32.474Z,98835.72
2022-12-17T17:39:58.673Z,98842.38
2022-12-17T17:42:24.960Z,98838.78
2022-12-17T17:44:51.169Z,98841.78
2022-12-17T17:47:17.459Z,98836.34
2022-12-17T17:49:43.639Z,98843.19
2022-12-17T17:52:10.863Z,98851.66
2022-12-17T17:54:37.312Z,98847.84
2022-12-17T17:57:03.539Z,98854.81
2022-12-17T17:59:33.671Z,98847.88
2022-12-17T18:02:00.612Z,98849.78
2022-12-17T18:04:27.215Z,98851.66
2022-12-17T18:07:23.669Z,98852.94
2022-12-17T18:09:39.659Z,98858.72
2022-12-17T18:12:05.836Z,98862.00
2022-12-17T18:14:37.508Z,98867.16
2022-12-17T18:17:08.064Z,98857.50
2022-12-17T18:19:34.288Z,98858.47
2022-12-17T18:22:00.587Z,98867.19
2022-12-17T18:24:26.821Z,98866.72
2022-12-17T18:26:53.070Z,98867.47
2022-12-17T18:29:19.364Z,98871.91
2022-12-17T18:31:51.379Z,98864.84
2022-12-17T18:34:18.089Z,98872.59
2022-12-17T18:36:44.438Z,98877.06
2022-12-17T18:39:10.624Z,98872.47
2022-12-17T18:41:36.866Z,98877.75
2022-12-17T18:44:03.061Z,98874.91
2022-12-17T18:46:29.376Z,98878.13
2022-12-17T18:48:55.564Z,98880.38
2022-12-17T18:51:21.828Z,98875.63
2022-12-17T18:53:48.065Z,98874.16
2022-12-17T18:56:22.906Z,98878.47
2022-12-17T18:58:58.042Z,98875.81
2022-12-17T19:01:24.408Z,98881.34
2022-12-17T19:03:50.749Z,98880.16
2022-12-17T19:06:16.937Z,98876.28
2022-12-17T19:08:43.163Z,98878.19
2022-12-17T19:11:09.339Z,98878.25
2022-12-17T19:13:35.533Z,98886.13
2022-12-17T19:16:01.820Z,98887.06
2022-12-17T19:18:28.023Z,98883.84
2022-12-17T19:20:54.194Z,98886.97
2022-12-17T19:23:20.407Z,98890.91
2022-12-17T19:25:46.678Z,98891.75
2022-12-17T19:28:12.872Z,98884.38
2022-12-17T19:30:39.038Z,98886.84
2022-12-17T19:33:05.319Z,98894.88
2022-12-17T19:35:31.707Z,98895.13
2022-12-17T19:37:57.936Z,98894.75
2022-12-17T19:40:24.136Z,98896.84
2022-12-17T19:42:50.342Z,98905.28
2022-12-17T19:45:16.535Z,98895.25
2022-12-17T19:47:42.699Z,98894.66
2022-12-17T19:50:08.893Z,98885.44
2022-12-17T19:52:35.062Z,98888.09
2022-12-17T19:55:01.260Z,98886.22
2022-12-17T19:57:27.469Z,98886.59
2022-12-17T19:59:53.778Z,98886.53
2022-12-17T20:02:20.140Z,98891.19
2022-12-17T20:04:46.580Z,98888.06
2022-12-17T20:07:12.762Z,98883.53
2022-12-17T20:09:38.992Z,98885.56
2022-12-17T20:12:05.343Z,98891.44
2022-12-17T20:14:31.716Z,98895.69
2022-12-17T20:16:58.449Z,98907.94
2022-12-17T20:19:24.715Z,98895.59
2022-12-17T20:21:50.892Z,98902.94
2022-12-17T20:24:17.091Z,98902.94
2022-12-17T20:26:43.375Z,98906.66
2022-12-17T20:29:09.621Z,98906.22
2022-12-17T20:31:35.905Z,98909.06
2022-12-17T20:34:02.163Z,98909.81
2022-12-17T20:36:28.389Z,98907.31
2022-12-17T20:38:54.597Z,98908.31
2022-12-17T20:41:20.803Z,98913.56
2022-12-17T20:43:47.028Z,98910.91
2022-12-17T20:46:13.426Z,98910.06
2022-12-17T20:48:40.103Z,98917.38
2022-12-17T20:51:06.621Z,98919.66
2022-12-17T20:53:36.637Z,98920.03
2022-12-17T20:56:03.806Z,98928.81
2022-12-17T20:58:30.066Z,98925.94
2022-12-17T21:01:00.041Z,98929.66
2022-12-17T21:03:28.768Z,98937.66
2022-12-17T21:05:55.551Z,98941.94
2022-12-17T21:08:21.905Z,98937.03
2022-12-17T21:10:55.228Z,98952.41
2022-12-17T21:13:25.203Z,98956.03
2022-12-17T21:15:54.179Z,98951.66
2022-12-17T21:18:20.476Z,98951.66
2022-12-17T21:20:48.587Z,98960.28
2022-12-17T21:23:14.783Z,98964.81
2022-12-17T21:25:40.989Z,98968.88
2022-12-17T21:28:07.346Z,98967.25
2022-12-17T21:30:34.977Z,98969.34
2022-12-17T21:33:01.237Z,98972.81
2022-12-17T21:35:27.645Z,98974.66
2022-12-17T21:37:54.020Z,98978.75
2022-12-17T21:40:20.252Z,98978.31
2022-12-17T21:42:46.758Z,98973.38
2022-12-17T21:45:13.722Z,98970.03
2022-12-17T21:47:40.913Z,98971.00
2022-12-17T21:50:07.272Z,98965.81
2022-12-17T21:52:33.599Z,98958.63
2022-12-17T21:54:59.984Z,98960.47
2022-12-17T21:57:26.283Z,98962.09
2022-12-17T21:59:52.669Z,98962.09
2022-12-17T22:02:19.710Z,98959.66
2022-12-17T22:04:46.196Z,98966.63
2022-12-17T22:07:14.955Z,98971.16
2022-12-17T22:09:52.383Z,98975.88
2022-12-17T22:12:29.737Z,98972.19
2022-12-17T22:14:56.185Z,98968.03
2022-12-17T22:17:23.092Z,98977.84
2022-12-17T22:19:50.034Z,98975.31
2022-12-17T22:22:16.313Z,98974.72
2022-12-17T22:24:42.631Z,98981.72
2022-12-17T22:27:09.770Z,98987.84
2022-12-17T22:29:36.321Z,98984.53
2022-12-17T22:32:02.775Z,98989.44
2022-12-17T22:36:11.359Z,98988.19
2022-12-17T22:40:34.309Z,98993.16
2022-12-17T22:44:30.452Z,98986.84
2022-12-17T22:44:46.298Z,98994.09
2022-12-17T22:45:35.017Z,98992.38
2022-12-17T22:48:01.232Z,98985.06
2022-12-17T22:50:27.906Z,98988.66
2022-12-17T22:52:59.788Z,98995.94
2022-12-17T22:55:26.416Z,98992.16
2022-12-17T22:57:53.811Z,98991.50
2022-12-17T23:00:22.139Z,99000.81
2022-12-17T23:02:50.659Z,99001.13
2022-12-17T23:05:17.001Z,99001.22
2022-12-17T23:07:43.681Z,99002.28
2022-12-17T23:10:12.214Z,99000.69
2022-12-17T23:12:40.236Z,98996.44
2022-12-17T23:15:07.418Z,98997.25
2022-12-17T23:17:35.601Z,98999.69
2022-12-17T23:20:03.897Z,98989.06
2022-12-17T23:22:31.126Z,98993.09
2022-12-17T23:24:58.933Z,98990.22
2022-12-17T23:27:25.711Z,98994.25
2022-12-17T23:29:53.328Z,98993.78
2022-12-17T23:32:20.937Z,98997.56
2022-12-17T23:34:49.053Z,98994.41
2022-12-17T23:37:16.280Z,98993.72
2022-12-17T23:39:43.760Z,98996.69
2022-12-17T23:42:11.926Z,98997.00
2022-12-17T23:44:38.964Z,99002.41
2022-12-17T23:47:07.935Z,99000.84
2022-12-17T23:49:36.015Z,99005.59
2022-12-17T23:52:04.305Z,99009.91
2022-12-17T23:54:34.647Z,99011.81
2022-12-17T23:57:03.223Z,99015.34
2022-12-17T23:59:30.539Z,99019.66
